Terminal Aerodrome Forecast
Issued by NWS

Home | Current Version | Previous Version | Text Only | Print | Product List | Glossary On
Versions: 1 2 3 4 5 6 7 8 9 10 11 12 13 14 15 16 17 18
000
FTUS43 KBIS 211735
TAFDIK
TAF
KDIK 211735Z 2118/2218 01010KT P6SM SKC
     FM220100 35009KT P6SM FEW110
     FM220800 01009KT P6SM FEW130
     FM221400 02013KT P6SM BKN120=

USA.gov is the U.S. government's official web portal to all federal, state and local government web resources and services.